Data for 11/19/2007

Time Sea-Level Adjusted Pressure Absolute Pressure Temperature Relative Humidity Dew Point   
(mb) (inHg) (mb) (inHg) (C) (F) (%) (C) (F)
00:05 1010 29.83 839 24.78 3.1 37.6 73 -1.3 29.6
00:10 1010 29.83 839 24.78 3 37.5 74 -1.2 29.8
00:15 1010 29.83 839 24.78 3.1 37.6 70 -1.7 28.9
00:20 1010 29.83 839 24.78 3.5 38.4 71 -1.2 29.8
00:25 1010 29.83 839 24.78 3.3 37.9 73 -1.2 29.9
00:30 1010 29.83 839 24.78 3 37.4 75 -1 30.2
00:35 1010 29.83 839 24.78 2.9 37.2 75 -1 30.1
00:40 1010 29.83 839 24.78 3.1 37.6 75 -1 30.2
00:45 1010 29.83 839 24.78 3.1 37.6 75 -0.9 30.5
00:50 1010 29.83 839 24.78 3 37.3 76 -0.9 30.4
00:55 1009 29.8 839 24.78 2.8 37 78 -0.8 30.6
01:00 1009 29.8 838 24.75 2.5 36.4 79 -0.8 30.5
01:05 1009 29.8 838 24.75 2.3 36.1 80 -0.8 30.5
01:10 1009 29.8 838 24.75 2.3 36.1 81 -0.7 30.7
01:15 1009 29.8 838 24.75 2.1 35.8 81 -0.8 30.5
01:20 1009 29.8 838 24.75 2.5 36.5 75 -1.6 29.2
01:25 1009 29.8 838 24.75 3.3 37.9 73 -1.1 29.9
01:30 1009 29.8 838 24.75 3.7 38.7 72 -1 30.3
01:35 1009 29.8 838 24.75 3.7 38.7 71 -1.1 30.1
01:40 1009 29.8 838 24.75 3.7 38.6 71 -1.1 30
01:45 1009 29.8 838 24.75 3.9 39 72 -0.7 30.8
01:50 1009 29.8 838 24.75 3.8 38.8 74 -0.4 31.3
01:55 1009 29.8 838 24.75 3.1 37.5 76 -0.7 30.7
02:00 1009 29.8 838 24.75 3.3 38 71 -1.4 29.5
02:05 1009 29.8 838 24.75 3.9 39.1 71 -0.9 30.4
02:10 1009 29.8 838 24.75 3.8 38.9 72 -0.8 30.5
02:15 1009 29.8 838 24.75 3.7 38.6 71 -1.1 30
02:20 1009 29.8 838 24.75 4 39.2 68 -1.4 29.5
02:25 1009 29.8 838 24.75 4.3 39.8 68 -1 30.2
02:30 1009 29.8 838 24.75 4.6 40.3 64 -1.5 29.3
02:35 1009 29.8 838 24.75 5 40.9 62 -1.6 29
02:40 1009 29.8 838 24.75 5.6 42.1 60 -1.5 29.2
02:45 1009 29.8 838 24.75 5.9 42.6 63 -0.6 31
02:50 1009 29.8 838 24.75 5.1 41.2 71 0.3 32.5
02:55 1009 29.8 838 24.75 3.6 38.6 76 -0.2 31.7
03:00 1009 29.8 838 24.75 3.1 37.6 78 -0.3 31.4
03:05 1009 29.8 838 24.75 3.1 37.5 77 -0.6 31
03:10 1009 29.8 838 24.75 3.1 37.7 76 -0.7 30.7
03:15 1009 29.8 838 24.75 3.1 37.7 76 -0.7 30.8
03:20 1009 29.8 838 24.75 3.2 37.7 76 -0.7 30.7
03:25 1009 29.8 838 24.75 3.1 37.5 76 -0.8 30.6
03:30 1009 29.8 838 24.75 2.9 37.2 76 -0.9 30.5
03:35 1009 29.8 838 24.75 2.9 37.2 75 -1.2 29.9
03:40 1009 29.8 838 24.75 3 37.4 74 -1.2 29.9
03:45 1009 29.8 838 24.75 2.9 37.2 73 -1.6 29.2
03:50 1009 29.8 838 24.75 2.5 36.6 75 -1.5 29.3
03:55 1009 29.8 838 24.75 2.4 36.4 75 -1.6 29.2
04:00 1009 29.8 838 24.75 2.3 36.2 75 -1.8 28.8
04:05 1009 29.8 838 24.75 2.2 36 75 -1.8 28.7
04:10 1009 29.8 838 24.75 2.1 35.8 75 -1.8 28.7
04:15 1009 29.8 838 24.75 2.1 35.7 76 -1.7 29
04:20 1009 29.8 838 24.75 2 35.5 80 -1.1 29.9
04:25 1009 29.8 838 24.75 1.3 34.3 83 -1.3 29.6
04:30 1009 29.8 838 24.75 1.1 34 84 -1.3 29.6
04:35 1009 29.8 838 24.75 1.2 34.1 82 -1.6 29.2
04:40 1009 29.8 838 24.75 1 33.9 82 -1.6 29.1
04:45 1009 29.8 838 24.75 1.2 34.2 79 -2 28.4
04:50 1009 29.8 838 24.75 1.7 35.1 77 -1.9 28.6
04:55 1009 29.8 838 24.75 1.8 35.3 76 -1.9 28.6
05:00 1009 29.8 838 24.75 1.9 35.4 77 -1.8 28.8
05:05 1009 29.8 838 24.75 1.8 35.3 77 -1.7 28.9
05:10 1009 29.8 838 24.75 1.9 35.4 77 -1.7 29
05:15 1009 29.8 838 24.75 1.7 35.1 78 -1.7 28.9
05:20 1009 29.8 838 24.75 1.6 34.9 79 -1.7 28.9
05:25 1009 29.8 838 24.75 1.6 34.8 79 -1.6 29.1
05:30 1009 29.8 838 24.75 1.4 34.6 80 -1.6 29.1
05:35 1009 29.8 839 24.78 1.3 34.3 81 -1.6 29.1
05:40 1009 29.8 839 24.78 1.2 34.1 81 -1.8 28.8
05:45 1009 29.8 839 24.78 1.3 34.3 82 -1.5 29.3
05:50 1009 29.8 839 24.78 1.3 34.4 80 -1.7 28.9
05:55 1009 29.8 839 24.78 1.4 34.5 80 -1.7 28.9
06:00 1009 29.8 839 24.78 1.6 34.8 79 -1.6 29
06:05 1009 29.8 839 24.78 1.6 34.8 79 -1.7 29
06:10 1010 29.83 839 24.78 1.7 35 78 -1.7 28.9
06:15 1010 29.83 839 24.78 1.8 35.2 77 -1.8 28.7
06:20 1010 29.83 839 24.78 1.9 35.5 77 -1.7 28.9
06:25 1009 29.8 839 24.78 2 35.6 77 -1.7 28.9
06:30 1009 29.8 839 24.78 2.1 35.8 76 -1.7 28.9
06:35 1009 29.8 838 24.75 1.9 35.4 78 -1.5 29.3
06:40 1009 29.8 838 24.75 1.6 34.8 81 -1.3 29.7
06:45 1009 29.8 838 24.75 1.1 33.9 83 -1.4 29.4
06:50 1009 29.8 838 24.75 0.9 33.6 84 -1.6 29.1
06:55 1009 29.8 838 24.75 0.9 33.6 83 -1.7 29
07:00 1009 29.8 838 24.75 1.1 33.9 82 -1.7 29
07:05 1009 29.8 838 24.75 1.3 34.3 81 -1.7 29
07:10 1009 29.8 839 24.78 1.4 34.6 80 -1.7 29
07:15 1009 29.8 839 24.78 1.5 34.7 79 -1.7 29
07:20 1009 29.8 839 24.78 1.5 34.8 79 -1.6 29
07:25 1009 29.8 839 24.78 1.5 34.6 80 -1.7 29
07:30 1010 29.83 839 24.78 1.4 34.5 80 -1.7 29
07:35 1010 29.83 839 24.78 1.3 34.4 80 -1.7 29
07:40 1010 29.83 839 24.78 1.3 34.4 80 -1.8 28.8
07:45 1010 29.83 839 24.78 1.3 34.4 80 -1.8 28.7
07:50 1010 29.83 839 24.78 1.4 34.5 80 -1.7 28.9
07:55 1010 29.83 839 24.78 1.4 34.4 81 -1.5 29.2
08:00 1010 29.83 839 24.78 1.3 34.4 82 -1.4 29.5
08:05 1010 29.83 839 24.78 1.3 34.3 83 -1.4 29.6
08:10 1011 29.85 840 24.81 1.3 34.4 82 -1.4 29.5
08:15 1011 29.85 840 24.81 1.5 34.7 81 -1.4 29.5
08:20 1011 29.85 840 24.81 1.3 34.3 83 -1.3 29.7
08:25 1011 29.85 840 24.81 1.1 34 85 -1.1 30
08:30 1011 29.85 840 24.81 0.9 33.6 87 -1.1 30.1
08:35 1011 29.85 840 24.81 0.8 33.5 87 -1 30.1
08:40 1011 29.85 840 24.81 0.9 33.6 88 -0.9 30.3
08:45 1011 29.85 840 24.81 1 33.7 88 -0.8 30.6
08:50 1011 29.85 840 24.81 1 33.7 89 -0.7 30.8
08:55 1011 29.85 840 24.81 0.9 33.6 89 -0.7 30.8
09:00 1011 29.85 840 24.81 0.6 33 92 -0.6 31
09:05 1011 29.85 840 24.81 0.5 33 93 -0.5 31
09:10 1011 29.85 841 24.83 0.5 33 92 -0.6 31
09:15 1011 29.85 841 24.83 0.6 33 93 -0.5 31.1
09:20 1011 29.85 841 24.83 0.7 33.2 92 -0.5 31
09:25 1011 29.85 841 24.83 0.8 33.4 90 -0.6 30.9
09:30 1011 29.85 841 24.83 0.9 33.6 85 -1.3 29.6
09:35 1011 29.85 841 24.83 1.1 33.9 84 -1.4 29.5
09:40 1012 29.88 841 24.83 1.3 34.4 82 -1.3 29.6
09:45 1012 29.88 841 24.83 1.5 34.6 82 -1.3 29.6
09:50 1012 29.88 841 24.83 1.4 34.6 81 -1.5 29.3
09:55 1012 29.88 841 24.83 1.2 34.1 83 -1.4 29.4
10:00 1012 29.88 841 24.83 1 33.8 84 -1.5 29.4
10:05 1012 29.88 841 24.83 0.8 33.4 84 -1.6 29.2
10:10 1012 29.88 841 24.83 0.7 33.3 85 -1.5 29.2
10:15 1012 29.88 841 24.83 0.7 33.2 85 -1.6 29.2
10:20 1012 29.88 841 24.83 0.7 33.2 85 -1.6 29.1
10:25 1012 29.88 841 24.83 0.6 33.1 85 -1.6 29.2
10:30 1012 29.88 841 24.83 0.5 33 86 -1.5 29.3
10:35 1012 29.88 841 24.83 0.6 33 86 -1.5 29.2
10:40 1012 29.88 841 24.83 0.6 33.2 86 -1.4 29.5
10:45 1012 29.88 841 24.83 0.7 33.3 86 -1.4 29.5
10:50 1012 29.88 841 24.83 0.9 33.6 85 -1.3 29.7
10:55 1012 29.88 841 24.83 0.9 33.7 85 -1.3 29.6
11:00 1012 29.88 841 24.83 1 33.7 84 -1.4 29.5
11:05 1012 29.88 841 24.83 1.1 34 84 -1.2 29.8
11:10 1012 29.88 841 24.83 1 33.7 85 -1.2 29.8
11:15 1012 29.88 841 24.83 1.1 34 84 -1.3 29.7
11:20 1012 29.88 841 24.83 1.1 34 85 -1.1 30
11:25 1012 29.88 841 24.83 1 33.7 85 -1.3 29.6
11:30 1012 29.88 841 24.83 0.9 33.6 85 -1.3 29.6
11:35 1012 29.88 841 24.83 0.9 33.7 85 -1.4 29.5
11:40 1012 29.88 841 24.83 1.1 33.9 84 -1.3 29.6
11:45 1012 29.88 841 24.83 1.2 34.2 85 -1.1 30
11:50 1012 29.88 841 24.83 1.1 34 85 -1.2 29.9
11:55 1012 29.88 841 24.83 1 33.8 86 -1.2 29.9
12:00 1012 29.88 841 24.83 0.9 33.7 86 -1.2 29.8
12:05 1012 29.88 841 24.83 0.8 33.4 86 -1.3 29.6
12:10 1012 29.88 841 24.83 0.8 33.4 86 -1.3 29.6
12:15 1012 29.88 841 24.83 0.9 33.6 86 -1.3 29.7
12:20 1012 29.88 841 24.83 0.9 33.6 86 -1.2 29.8
12:25 1012 29.88 841 24.83 0.8 33.4 87 -1.2 29.9
12:30 1012 29.88 841 24.83 0.7 33.3 88 -1.1 30
12:35 1012 29.88 841 24.83 0.7 33.3 87 -1.2 29.9
12:40 1012 29.88 841 24.83 0.4 32.7 90 -1.1 30.1
12:45 1012 29.88 841 24.83 0.2 32.3 92 -0.9 30.3
12:50 1012 29.88 841 24.83 0.1 32.2 93 -0.9 30.3
12:55 1012 29.88 841 24.83 -0 31.9 94 -0.9 30.3
13:00 1012 29.88 841 24.83 -0.1 31.7 96 -0.7 30.7
13:05 1012 29.88 841 24.83 -0.2 31.6 97 -0.7 30.7
13:10 1012 29.88 841 24.83 -0.3 31.5 97 -0.8 30.6
13:15 1012 29.88 841 24.83 -0.3 31.4 97 -0.8 30.5
13:20 1012 29.88 842 24.86 -0.4 31.2 97 -0.8 30.6
13:25 1012 29.88 842 24.86 -0.5 31.2 98 -0.8 30.6
13:30 1012 29.88 842 24.86 -0.5 31.1 98 -0.8 30.5
13:35 1012 29.88 842 24.86 -0.6 31 98 -0.8 30.5
13:40 1012 29.88 842 24.86 -0.6 31 98 -0.9 30.5
13:45 1012 29.88 842 24.86 -0.6 31 98 -0.8 30.6
13:50 1012 29.88 842 24.86 -0.6 31 98 -0.8 30.5
13:55 1013 29.91 842 24.86 -0.6 30.9 98 -0.8 30.5
14:00 1012 29.88 842 24.86 -0.6 30.8 98 -0.9 30.4
14:05 1013 29.91 842 24.86 -0.7 30.8 99 -0.9 30.5
14:10 1013 29.91 842 24.86 -0.7 30.8 99 -0.8 30.5
14:15 1013 29.91 842 24.86 -0.8 30.6 98 -1 30.2
14:20 1013 29.91 842 24.86 -0.9 30.5 99 -1 30.1
14:25 1013 29.91 842 24.86 -0.9 30.3 98 -1.2 29.9
14:30 1013 29.91 842 24.86 -1.1 29.9 98 -1.4 29.5
14:35 1013 29.91 842 24.86 -1.3 29.7 98 -1.6 29.2
14:40 1013 29.91 842 24.86 -1.4 29.4 98 -1.7 28.9
14:45 1013 29.91 842 24.86 -1.5 29.2 98 -1.8 28.7
14:50 1013 29.91 842 24.86 -1.6 29.2 98 -1.8 28.7
14:55 1013 29.91 842 24.86 -1.6 29.2 98 -1.9 28.7
15:00 1013 29.91 842 24.86 -1.7 28.9 98 -2 28.5
15:05 1013 29.91 842 24.86 -1.8 28.8 99 -2 28.5
15:10 1013 29.91 843 24.89 -1.7 28.9 98 -2 28.4
15:15 1013 29.91 843 24.89 -1.8 28.7 98 -2.1 28.2
15:20 1013 29.91 843 24.89 -1.9 28.5 98 -2.2 28
15:25 1014 29.94 843 24.89 -2 28.4 98 -2.2 28
15:30 1013 29.91 843 24.89 -2 28.3 98 -2.3 27.8
15:35 1013 29.91 843 24.89 -2.1 28.3 98 -2.3 27.8
15:40 1013 29.91 843 24.89 -2.1 28.2 98 -2.4 27.7
15:45 1013 29.91 843 24.89 -2.2 28.1 98 -2.4 27.7
15:50 1013 29.91 843 24.89 -2.2 28.1 99 -2.4 27.7
15:55 1013 29.91 843 24.89 -2.2 28 98 -2.4 27.6
16:00 1013 29.91 843 24.89 -2.3 27.9 98 -2.5 27.5
16:05 1014 29.94 843 24.89 -2.3 27.9 98 -2.5 27.5
16:10 1014 29.94 843 24.89 -2.3 27.8 98 -2.6 27.4
16:15 1014 29.94 843 24.89 -2.4 27.7 98 -2.6 27.3
16:20 1014 29.94 843 24.89 -2.5 27.6 98 -2.8 27
16:25 1014 29.94 843 24.89 -2.5 27.5 98 -2.8 26.9
16:30 1014 29.94 843 24.89 -2.6 27.4 98 -2.9 26.8
16:35 1014 29.94 843 24.89 -2.6 27.3 98 -2.9 26.8
16:40 1014 29.94 843 24.89 -2.6 27.3 98 -2.9 26.7
16:45 1014 29.94 843 24.89 -2.6 27.2 98 -3 26.7
16:50 1014 29.94 843 24.89 -2.7 27.2 98 -3 26.6
16:55 1014 29.94 843 24.89 -2.7 27.1 98 -3 26.5
17:00 1014 29.94 843 24.89 -2.7 27.1 98 -3 26.6
17:05 1014 29.94 843 24.89 -2.7 27.1 98 -3 26.6
17:10 1014 29.94 843 24.89 -2.8 27 98 -3 26.5
17:15 1014 29.94 843 24.89 -2.8 27 98 -3.1 26.5
17:20 1014 29.94 843 24.89 -2.8 27 98 -3.1 26.4
17:25 1014 29.94 843 24.89 -2.8 27 97 -3.2 26.3
17:30 1014 29.94 843 24.89 -2.8 27 97 -3.2 26.3
17:35 1014 29.94 843 24.89 -2.8 27 97 -3.2 26.2
17:40 1014 29.94 844 24.92 -2.8 27 97 -3.2 26.2
17:45 1014 29.94 844 24.92 -2.8 27 97 -3.2 26.2
17:50 1015 29.97 844 24.92 -2.8 26.9 98 -3.2 26.3
17:55 1015 29.97 844 24.92 -2.8 26.9 97 -3.2 26.2
18:00 1015 29.97 844 24.92 -2.8 26.9 97 -3.2 26.2
18:05 1014 29.94 844 24.92 -2.9 26.8 97 -3.3 26.1
18:10 1015 29.97 844 24.92 -2.9 26.9 96 -3.4 25.9
18:15 1015 29.97 844 24.92 -2.9 26.8 96 -3.4 25.8
18:20 1015 29.97 844 24.92 -2.9 26.7 95 -3.6 25.6
18:25 1015 29.97 844 24.92 -3 26.6 95 -3.7 25.3
18:30 1015 29.97 844 24.92 -3 26.6 95 -3.7 25.3
18:35 1015 29.97 844 24.92 -3.1 26.5 96 -3.7 25.3
18:40 1015 29.97 844 24.92 -3.1 26.3 96 -3.8 25.2
18:45 1015 29.97 844 24.92 -3.3 26.1 95 -3.9 24.9
18:50 1015 29.97 844 24.92 -3.3 26.1 95 -4 24.8
18:55 1015 29.97 844 24.92 -3.3 26.1 94 -4.1 24.6
19:00 1015 29.97 844 24.92 -3.3 26.1 93 -4.2 24.5
19:05 1015 29.97 844 24.92 -3.2 26.2 93 -4.2 24.4
19:10 1015 29.97 844 24.92 -3.2 26.2 93 -4.2 24.4
19:15 1015 29.97 844 24.92 -3.2 26.2 92 -4.3 24.3
19:20 1015 29.97 844 24.92 -3.2 26.2 93 -4.2 24.4
19:25 1015 29.97 844 24.92 -3.3 26.1 93 -4.2 24.4
19:30 1015 29.97 844 24.92 -3.3 26.1 93 -4.3 24.3
19:35 1016 30 845 24.95 -3.3 26 92 -4.4 24.1
19:40 1015 29.97 845 24.95 -3.4 26 93 -4.3 24.2
19:45 1016 30 845 24.95 -3.4 25.9 94 -4.3 24.3
19:50 1016 30 845 24.95 -3.5 25.7 95 -4.1 24.6
19:55 1016 30 845 24.95 -3.5 25.6 96 -4.1 24.7
20:00 1016 30 845 24.95 -3.6 25.5 96 -4.1 24.6
20:05 1015 29.97 845 24.95 -3.6 25.5 96 -4.1 24.6
20:10 1015 29.97 845 24.95 -3.7 25.4 96 -4.2 24.4
20:15 1016 30 845 24.95 -3.7 25.4 96 -4.2 24.5
20:20 1016 30 845 24.95 -3.7 25.4 97 -4.1 24.6
20:25 1016 30 845 24.95 -3.7 25.4 97 -4.2 24.5
20:30 1016 30 845 24.95 -3.7 25.3 96 -4.3 24.3
20:35 1016 30 845 24.95 -3.8 25.2 96 -4.4 24.1
20:40 1016 30 845 24.95 -3.8 25.2 96 -4.3 24.2
20:45 1016 30 845 24.95 -3.8 25.2 96 -4.4 24.1
20:50 1016 30 845 24.95 -3.8 25.1 96 -4.4 24
20:55 1016 30 845 24.95 -3.8 25.1 95 -4.5 23.8
21:00 1016 30 845 24.95 -3.9 25 94 -4.7 23.6
21:05 1016 30 845 24.95 -3.9 25 93 -4.8 23.3
21:10 1016 30 845 24.95 -3.9 25 94 -4.7 23.5
21:15 1016 30 845 24.95 -4 24.9 95 -4.6 23.7
21:20 1016 30 845 24.95 -4 24.8 96 -4.6 23.7
21:25 1016 30 845 24.95 -4 24.8 95 -4.6 23.6
21:30 1016 30 845 24.95 -4 24.8 96 -4.6 23.7
21:35 1016 30 845 24.95 -4 24.8 96 -4.6 23.7
21:40 1016 30 845 24.95 -4 24.7 95 -4.7 23.5
21:45 1016 30 845 24.95 -4.1 24.7 94 -4.8 23.3
21:50 1016 30 845 24.95 -4.1 24.6 93 -5 23
21:55 1016 30 845 24.95 -4.2 24.5 93 -5.2 22.7
22:00 1016 30 845 24.95 -4.2 24.4 92 -5.3 22.4
22:05 1016 30 845 24.95 -4.2 24.4 92 -5.3 22.5
22:10 1016 30 845 24.95 -4.3 24.3 91 -5.5 22.2
22:15 1016 30 845 24.95 -4.3 24.3 92 -5.4 22.4
22:20 1016 30 845 24.95 -4.3 24.3 93 -5.3 22.4
22:25 1016 30 845 24.95 -4.3 24.2 92 -5.4 22.2
22:30 1016 30 845 24.95 -4.4 24.2 92 -5.5 22.1
22:35 1016 30 845 24.95 -4.4 24.1 91 -5.6 21.9
22:40 1016 30 846 24.98 -4.4 24.1 92 -5.5 22
22:45 1016 30 846 24.98 -4.4 24.1 91 -5.6 22
22:50 1017 30.03 846 24.98 -4.4 24.1 91 -5.7 21.7
22:55 1017 30.03 846 24.98 -4.5 24 90 -5.8 21.5
23:00 1017 30.03 846 24.98 -4.5 24 90 -5.8 21.5
23:05 1017 30.03 846 24.98 -4.5 23.9 90 -5.9 21.3
23:10 1017 30.03 846 24.98 -4.5 23.9 89 -6 21.2
23:15 1017 30.03 846 24.98 -4.5 23.9 89 -6 21.2
23:20 1017 30.03 846 24.98 -4.5 23.8 89 -6 21.1
23:25 1017 30.03 846 24.98 -4.6 23.8 90 -6 21.2
23:30 1017 30.03 846 24.98 -4.6 23.8 90 -6 21.2
23:35 1017 30.03 846 24.98 -4.6 23.8 90 -6 21.2
23:40 1017 30.03 846 24.98 -4.6 23.8 90 -6 21.3
23:45 1017 30.03 846 24.98 -4.6 23.7 90 -6 21.2
23:50 1017 30.03 846 24.98 -4.6 23.8 90 -6 21.2
23:55 1017 30.03 846 24.98 -4.6 23.7 90 -6 21.3
24:00 1017 30.03 846 24.98 -4.6 23.7 90 -5.9 21.3